LPFRGMMX

Guest
Details From LPFR - Faro
To GMMX - MENARA
Flight Number -
Tags decoded
Created
Modified
Stats Distance 325 nm / 602 km
Max Altitude 0 ft / 0 m
Waypoints 2
Social Downloads 0
Likes 0
Share VATSIM

Download

Looking for another format? Having issues loading an existing format? Contact us
Advertisement - Login to hide

Notes

Requested: LPFR GMMX

Route

LPFR GMMX

ID Type Via Altitude Latitude Longitude Leg Dist Tot Dist Heading (true) Name
O LPFR APT - 0 ft / 0 m 37.01534˚ -7.97233˚ - 0 nm - Faro
O GMMX APT - 0 ft / 0 m 31.60692˚ -8.03627˚ 324 nm 324 nm 181° / 181° MENARA

Altitude Profile

Advertisement - Login to hide

Weather


0- 5 10 15 20 25 30 35+ Temperature / ° C

Clouds and Precipitation
Forecast for 2018-05-27 00:00 UTC. Updated 4 hours ago

Ground ~20,000 ft ~40,000 ft Winds

LPFR

Details ICAO LPFR (FAO)
Name Faro
Region Portugal
Timezone Europe/Lisbon (UTC+1.0)
Stats Elevation 24 ft / 7 m (AMSL)
Location 37.015336° -7.972327°
Runways 1
Magnetic Variation 1.882° W

METAR

LPFR 270330Z 27005KT CAVOK 16/14 Q1013

Decode

TAF

TAF LPFR 262300Z 2700/2724 VRB03KT 9999 SCT035 BECMG 2709/2712 26015KT BECMG 2718/2721 32010KT

Decode

Departure Runways

ID Width Length Bearing (true) Bearing (mag) Surface Threshold Offset Overrun Length
10 148 ft / 45 m 8,148 ft / 2,484 m 100.08° 101.96° Asphalt 148 ft / 45 m 0 ft / 0 m
28 148 ft / 45 m 8,148 ft / 2,484 m 280.10° 281.98° Asphalt 148 ft / 45 m 0 ft / 0 m

GMMX

Details ICAO GMMX (RAK)
Name MENARA
Region Morocco
Timezone Africa/Casablanca (UTC+0.0)
Stats Elevation 1,545 ft / 471 m (AMSL)
Location 31.606920° -8.036265°
Runways 1
Magnetic Variation 1.950° W

METAR

GMMX 270330Z 30005KT 270V330 9999 BKN023 16/12 Q1016 NOSIG

Decode

TAF

TAF GMMX 262300Z 2700/2806 28006KT 8000 BKN026 TEMPO 2712/2721 32014KT BKN023 FEW033TCU PROB30 TEMPO 2723/2803 SCT016 5000 -RA

Decode

Destination Runways

ID Width Length Bearing (true) Bearing (mag) Surface Threshold Offset Overrun Length
10 148 ft / 45 m 10,169 ft / 3,100 m 95.99° 97.94° Asphalt 918 ft / 280 m 0 ft / 0 m
28 148 ft / 45 m 10,169 ft / 3,100 m 276.00° 277.95° Asphalt 0 ft / 0 m 0 ft / 0 m

Approach Navaids

Runway Type Ident Frequency Range Bearing (true) Bearing (mag) Slope Elevation
10 Localiser MAR 109.70 MHz 18 nm / 33 km 96.03° 97.97° - 1,545 ft / 471 m (AMSL)
10 Glidescope MAR 109.70 MHz 10 nm / 19 km 96.00° 97.95° 3.00° 1,558 ft / 475 m (AMSL)

Popular Alternatives